sensor_id;sensor_type;location;lat;lon;timestamp;temperature;humidity
38866;DHT22;62686;48.984;8.394;2022-09-16T00:00:44;14.40;57.10
38866;DHT22;62686;48.984;8.394;2022-09-16T00:03:13;14.40;57.10
38866;DHT22;62686;48.984;8.394;2022-09-16T00:05:45;14.50;57.30
38866;DHT22;62686;48.984;8.394;2022-09-16T00:08:13;14.50;57.40
38866;DHT22;62686;48.984;8.394;2022-09-16T00:10:42;14.50;57.70
38866;DHT22;62686;48.984;8.394;2022-09-16T00:13:10;14.50;58.10
38866;DHT22;62686;48.984;8.394;2022-09-16T00:15:41;14.50;58.20
38866;DHT22;62686;48.984;8.394;2022-09-16T00:18:11;14.50;58.30
38866;DHT22;62686;48.984;8.394;2022-09-16T00:20:44;14.50;58.30
38866;DHT22;62686;48.984;8.394;2022-09-16T00:23:12;14.50;58.60
38866;DHT22;62686;48.984;8.394;2022-09-16T00:25:41;14.50;59.70
38866;DHT22;62686;48.984;8.394;2022-09-16T00:28:09;14.40;59.30
38866;DHT22;62686;48.984;8.394;2022-09-16T00:30:37;14.30;59.60
38866;DHT22;62686;48.984;8.394;2022-09-16T00:33:05;14.10;59.90
38866;DHT22;62686;48.984;8.394;2022-09-16T00:35:36;13.90;59.80
38866;DHT22;62686;48.984;8.394;2022-09-16T00:38:04;13.80;59.40
38866;DHT22;62686;48.984;8.394;2022-09-16T00:40:33;13.80;59.20
38866;DHT22;62686;48.984;8.394;2022-09-16T00:43:02;13.70;59.10
38866;DHT22;62686;48.984;8.394;2022-09-16T00:45:30;13.70;58.90
38866;DHT22;62686;48.984;8.394;2022-09-16T00:48:02;13.80;59.30
38866;DHT22;62686;48.984;8.394;2022-09-16T00:50:36;13.80;59.60
38866;DHT22;62686;48.984;8.394;2022-09-16T00:53:07;13.80;59.80
38866;DHT22;62686;48.984;8.394;2022-09-16T00:55:36;13.80;59.70
38866;DHT22;62686;48.984;8.394;2022-09-16T00:58:09;13.70;59.50
38866;DHT22;62686;48.984;8.394;2022-09-16T01:00:40;13.60;58.90
38866;DHT22;62686;48.984;8.394;2022-09-16T01:03:08;13.40;58.10
38866;DHT22;62686;48.984;8.394;2022-09-16T01:05:38;13.30;57.60
38866;DHT22;62686;48.984;8.394;2022-09-16T01:08:07;13.20;57.10
38866;DHT22;62686;48.984;8.394;2022-09-16T01:10:35;12.90;56.00
38866;DHT22;62686;48.984;8.394;2022-09-16T01:13:05;12.90;55.70
38866;DHT22;62686;48.984;8.394;2022-09-16T01:15:38;12.80;55.60
38866;DHT22;62686;48.984;8.394;2022-09-16T01:18:15;12.80;55.90
38866;DHT22;62686;48.984;8.394;2022-09-16T01:21:08;12.90;57.10
38866;DHT22;62686;48.984;8.394;2022-09-16T01:24:15;13.00;58.00
38866;DHT22;62686;48.984;8.394;2022-09-16T01:30:31;13.20;59.00
38866;DHT22;62686;48.984;8.394;2022-09-16T01:33:02;13.30;59.30
38866;DHT22;62686;48.984;8.394;2022-09-16T01:35:42;13.30;59.30
38866;DHT22;62686;48.984;8.394;2022-09-16T01:38:25;13.40;59.30
38866;DHT22;62686;48.984;8.394;2022-09-16T01:40:59;13.40;59.30
38866;DHT22;62686;48.984;8.394;2022-09-16T01:43:37;13.50;59.40
38866;DHT22;62686;48.984;8.394;2022-09-16T01:46:17;13.50;59.40
38866;DHT22;62686;48.984;8.394;2022-09-16T01:48:52;13.50;59.50
38866;DHT22;62686;48.984;8.394;2022-09-16T01:51:25;13.40;59.40
38866;DHT22;62686;48.984;8.394;2022-09-16T01:54:02;13.40;59.40
38866;DHT22;62686;48.984;8.394;2022-09-16T01:56:35;13.30;59.40
38866;DHT22;62686;48.984;8.394;2022-09-16T01:59:08;13.20;59.30
38866;DHT22;62686;48.984;8.394;2022-09-16T02:01:43;13.20;59.30
38866;DHT22;62686;48.984;8.394;2022-09-16T02:04:16;13.10;59.30
38866;DHT22;62686;48.984;8.394;2022-09-16T02:06:48;13.10;59.30
38866;DHT22;62686;48.984;8.394;2022-09-16T02:09:20;13.00;59.20
38866;DHT22;62686;48.984;8.394;2022-09-16T02:11:51;13.00;59.30
38866;DHT22;62686;48.984;8.394;2022-09-16T02:14:23;13.10;59.40
38866;DHT22;62686;48.984;8.394;2022-09-16T02:16:56;13.10;59.30
38866;DHT22;62686;48.984;8.394;2022-09-16T02:19:28;13.20;59.20
38866;DHT22;62686;48.984;8.394;2022-09-16T02:22:00;13.20;59.10
38866;DHT22;62686;48.984;8.394;2022-09-16T02:24:32;13.30;59.00
38866;DHT22;62686;48.984;8.394;2022-09-16T02:27:04;13.30;59.00
38866;DHT22;62686;48.984;8.394;2022-09-16T02:29:38;13.30;58.90
38866;DHT22;62686;48.984;8.394;2022-09-16T02:32:10;13.40;58.80
38866;DHT22;62686;48.984;8.394;2022-09-16T02:34:42;13.40;58.80
38866;DHT22;62686;48.984;8.394;2022-09-16T02:37:14;13.40;58.70
38866;DHT22;62686;48.984;8.394;2022-09-16T02:39:48;13.40;58.70
38866;DHT22;62686;48.984;8.394;2022-09-16T02:42:17;13.50;58.60
38866;DHT22;62686;48.984;8.394;2022-09-16T02:44:45;13.50;58.50
38866;DHT22;62686;48.984;8.394;2022-09-16T02:47:19;13.50;58.50
38866;DHT22;62686;48.984;8.394;2022-09-16T02:49:53;13.50;58.30
38866;DHT22;62686;48.984;8.394;2022-09-16T02:52:28;13.50;58.40
38866;DHT22;62686;48.984;8.394;2022-09-16T02:55:04;13.50;58.30
38866;DHT22;62686;48.984;8.394;2022-09-16T02:57:37;13.60;58.30
38866;DHT22;62686;48.984;8.394;2022-09-16T03:00:06;13.50;58.30
38866;DHT22;62686;48.984;8.394;2022-09-16T03:02:36;13.60;58.30
38866;DHT22;62686;48.984;8.394;2022-09-16T03:05:05;13.50;58.20
38866;DHT22;62686;48.984;8.394;2022-09-16T03:07:35;13.60;58.30
38866;DHT22;62686;48.984;8.394;2022-09-16T03:10:04;13.60;58.30
38866;DHT22;62686;48.984;8.394;2022-09-16T03:12:49;13.60;58.40
38866;DHT22;62686;48.984;8.394;2022-09-16T03:15:40;13.60;58.40
38866;DHT22;62686;48.984;8.394;2022-09-16T03:18:26;13.60;58.40
38866;DHT22;62686;48.984;8.394;2022-09-16T03:21:00;13.60;58.40
38866;DHT22;62686;48.984;8.394;2022-09-16T03:23:39;13.60;58.40
38866;DHT22;62686;48.984;8.394;2022-09-16T03:26:19;13.60;58.30
38866;DHT22;62686;48.984;8.394;2022-09-16T03:28:57;13.60;58.30
38866;DHT22;62686;48.984;8.394;2022-09-16T03:31:33;13.60;58.90
38866;DHT22;62686;48.984;8.394;2022-09-16T03:34:09;13.70;58.30
38866;DHT22;62686;48.984;8.394;2022-09-16T03:36:43;13.60;58.10
38866;DHT22;62686;48.984;8.394;2022-09-16T03:39:13;13.70;58.10
38866;DHT22;62686;48.984;8.394;2022-09-16T03:41:42;13.70;58.10
38866;DHT22;62686;48.984;8.394;2022-09-16T03:44:10;13.70;58.10
38866;DHT22;62686;48.984;8.394;2022-09-16T03:46:38;13.70;58.00
38866;DHT22;62686;48.984;8.394;2022-09-16T03:49:08;13.80;58.00
38866;DHT22;62686;48.984;8.394;2022-09-16T03:51:37;13.80;58.00
38866;DHT22;62686;48.984;8.394;2022-09-16T03:54:05;13.80;58.00
38866;DHT22;62686;48.984;8.394;2022-09-16T03:56:33;13.80;58.00
38866;DHT22;62686;48.984;8.394;2022-09-16T03:59:01;13.80;58.00
38866;DHT22;62686;48.984;8.394;2022-09-16T04:01:29;13.80;58.10
38866;DHT22;62686;48.984;8.394;2022-09-16T04:03:58;13.80;58.00
38866;DHT22;62686;48.984;8.394;2022-09-16T04:06:27;13.80;57.80
38866;DHT22;62686;48.984;8.394;2022-09-16T04:08:55;13.90;57.90
38866;DHT22;62686;48.984;8.394;2022-09-16T04:11:27;13.90;57.90
38866;DHT22;62686;48.984;8.394;2022-09-16T04:13:58;13.90;57.80
38866;DHT22;62686;48.984;8.394;2022-09-16T04:16:26;13.90;57.90
38866;DHT22;62686;48.984;8.394;2022-09-16T04:18:54;13.90;58.00
38866;DHT22;62686;48.984;8.394;2022-09-16T04:21:22;13.90;58.00
38866;DHT22;62686;48.984;8.394;2022-09-16T04:23:52;13.90;58.00
38866;DHT22;62686;48.984;8.394;2022-09-16T04:26:21;13.90;57.90
38866;DHT22;62686;48.984;8.394;2022-09-16T04:28:51;13.90;57.90
38866;DHT22;62686;48.984;8.394;2022-09-16T04:31:20;13.90;57.90
38866;DHT22;62686;48.984;8.394;2022-09-16T04:33:48;13.90;57.90
38866;DHT22;62686;48.984;8.394;2022-09-16T04:36:18;13.90;58.30
38866;DHT22;62686;48.984;8.394;2022-09-16T04:38:47;13.90;58.40
38866;DHT22;62686;48.984;8.394;2022-09-16T04:41:19;13.90;58.40
38866;DHT22;62686;48.984;8.394;2022-09-16T04:43:50;14.00;58.40
38866;DHT22;62686;48.984;8.394;2022-09-16T04:46:19;14.00;58.30
38866;DHT22;62686;48.984;8.394;2022-09-16T04:48:47;14.00;58.20
38866;DHT22;62686;48.984;8.394;2022-09-16T04:51:16;14.00;58.20
38866;DHT22;62686;48.984;8.394;2022-09-16T04:53:46;14.00;58.20
38866;DHT22;62686;48.984;8.394;2022-09-16T04:56:17;14.00;58.20
38866;DHT22;62686;48.984;8.394;2022-09-16T04:58:47;14.00;58.90
38866;DHT22;62686;48.984;8.394;2022-09-16T05:01:17;14.00;58.40
38866;DHT22;62686;48.984;8.394;2022-09-16T05:03:46;14.00;58.50
38866;DHT22;62686;48.984;8.394;2022-09-16T05:06:16;14.00;58.50
38866;DHT22;62686;48.984;8.394;2022-09-16T05:08:46;14.00;58.50
38866;DHT22;62686;48.984;8.394;2022-09-16T05:11:17;14.00;58.50
38866;DHT22;62686;48.984;8.394;2022-09-16T05:13:46;13.90;58.60
38866;DHT22;62686;48.984;8.394;2022-09-16T05:16:16;13.80;59.30
38866;DHT22;62686;48.984;8.394;2022-09-16T05:18:46;13.60;59.90
38866;DHT22;62686;48.984;8.394;2022-09-16T05:21:17;13.50;60.50
38866;DHT22;62686;48.984;8.394;2022-09-16T05:23:46;13.50;60.80
38866;DHT22;62686;48.984;8.394;2022-09-16T05:26:19;13.40;61.10
38866;DHT22;62686;48.984;8.394;2022-09-16T05:28:48;13.30;61.40
38866;DHT22;62686;48.984;8.394;2022-09-16T05:31:19;13.30;62.10
38866;DHT22;62686;48.984;8.394;2022-09-16T05:33:53;13.20;62.40
38866;DHT22;62686;48.984;8.394;2022-09-16T05:36:21;13.10;62.50
38866;DHT22;62686;48.984;8.394;2022-09-16T05:38:50;13.10;62.70
38866;DHT22;62686;48.984;8.394;2022-09-16T05:41:32;13.00;62.60
38866;DHT22;62686;48.984;8.394;2022-09-16T05:44:00;13.00;62.60
38866;DHT22;62686;48.984;8.394;2022-09-16T05:46:29;13.00;62.60
38866;DHT22;62686;48.984;8.394;2022-09-16T05:48:57;12.90;62.50
38866;DHT22;62686;48.984;8.394;2022-09-16T05:51:25;12.90;62.60
38866;DHT22;62686;48.984;8.394;2022-09-16T05:53:54;13.00;62.80
38866;DHT22;62686;48.984;8.394;2022-09-16T05:56:24;13.00;62.90
38866;DHT22;62686;48.984;8.394;2022-09-16T05:58:55;12.90;62.70
38866;DHT22;62686;48.984;8.394;2022-09-16T06:01:25;12.90;62.70
38866;DHT22;62686;48.984;8.394;2022-09-16T06:03:54;12.90;62.80
38866;DHT22;62686;48.984;8.394;2022-09-16T06:06:24;12.90;62.80
38866;DHT22;62686;48.984;8.394;2022-09-16T06:08:54;12.90;62.80
38866;DHT22;62686;48.984;8.394;2022-09-16T06:11:23;12.90;62.70
38866;DHT22;62686;48.984;8.394;2022-09-16T06:13:53;12.90;62.70
38866;DHT22;62686;48.984;8.394;2022-09-16T06:16:23;12.90;62.80
38866;DHT22;62686;48.984;8.394;2022-09-16T06:18:52;13.00;63.10
38866;DHT22;62686;48.984;8.394;2022-09-16T06:21:21;13.00;63.30
38866;DHT22;62686;48.984;8.394;2022-09-16T06:23:50;13.10;63.70
38866;DHT22;62686;48.984;8.394;2022-09-16T06:26:20;13.20;64.10
38866;DHT22;62686;48.984;8.394;2022-09-16T06:28:49;13.30;64.20
38866;DHT22;62686;48.984;8.394;2022-09-16T06:31:20;13.30;64.10
38866;DHT22;62686;48.984;8.394;2022-09-16T06:33:49;13.40;64.30
38866;DHT22;62686;48.984;8.394;2022-09-16T06:36:19;13.40;64.40
38866;DHT22;62686;48.984;8.394;2022-09-16T06:38:48;13.50;64.50
38866;DHT22;62686;48.984;8.394;2022-09-16T06:41:18;13.50;64.50
38866;DHT22;62686;48.984;8.394;2022-09-16T06:43:46;13.60;64.60
38866;DHT22;62686;48.984;8.394;2022-09-16T06:46:20;13.60;64.60
38866;DHT22;62686;48.984;8.394;2022-09-16T06:48:50;13.60;64.00
38866;DHT22;62686;48.984;8.394;2022-09-16T06:51:19;13.60;63.50
38866;DHT22;62686;48.984;8.394;2022-09-16T06:53:49;13.70;63.30
38866;DHT22;62686;48.984;8.394;2022-09-16T06:56:19;13.70;63.00
38866;DHT22;62686;48.984;8.394;2022-09-16T06:58:49;13.70;61.50
38866;DHT22;62686;48.984;8.394;2022-09-16T07:01:22;13.70;61.10
38866;DHT22;62686;48.984;8.394;2022-09-16T07:03:51;13.80;60.70
38866;DHT22;62686;48.984;8.394;2022-09-16T07:06:22;13.70;59.90
38866;DHT22;62686;48.984;8.394;2022-09-16T07:08:55;13.80;59.50
38866;DHT22;62686;48.984;8.394;2022-09-16T07:11:24;13.70;59.10
38866;DHT22;62686;48.984;8.394;2022-09-16T07:13:52;13.80;59.30
38866;DHT22;62686;48.984;8.394;2022-09-16T07:16:23;13.80;60.40
38866;DHT22;62686;48.984;8.394;2022-09-16T07:18:52;13.90;61.80
38866;DHT22;62686;48.984;8.394;2022-09-16T07:21:25;14.00;63.10
38866;DHT22;62686;48.984;8.394;2022-09-16T07:23:57;14.10;62.20
38866;DHT22;62686;48.984;8.394;2022-09-16T07:26:26;14.20;62.80
38866;DHT22;62686;48.984;8.394;2022-09-16T07:28:57;14.20;62.60
38866;DHT22;62686;48.984;8.394;2022-09-16T07:31:28;14.30;62.40
38866;DHT22;62686;48.984;8.394;2022-09-16T07:33:58;14.40;60.90
38866;DHT22;62686;48.984;8.394;2022-09-16T07:36:31;14.60;61.80
38866;DHT22;62686;48.984;8.394;2022-09-16T07:39:00;14.80;62.20
38866;DHT22;62686;48.984;8.394;2022-09-16T07:41:31;14.90;57.90
38866;DHT22;62686;48.984;8.394;2022-09-16T07:44:00;15.20;58.90
38866;DHT22;62686;48.984;8.394;2022-09-16T07:46:33;15.50;57.20
38866;DHT22;62686;48.984;8.394;2022-09-16T07:49:04;15.70;38.40
38866;DHT22;62686;48.984;8.394;2022-09-16T07:51:33;15.60;11.60
38866;DHT22;62686;48.984;8.394;2022-09-16T07:54:03;15.50;1.00
38866;DHT22;62686;48.984;8.394;2022-09-16T07:56:34;15.50;1.00
38866;DHT22;62686;48.984;8.394;2022-09-16T07:59:04;15.50;1.80
38866;DHT22;62686;48.984;8.394;2022-09-16T08:01:34;15.50;13.50
38866;DHT22;62686;48.984;8.394;2022-09-16T08:04:04;15.50;10.60
38866;DHT22;62686;48.984;8.394;2022-09-16T08:06:32;15.50;1.00
38866;DHT22;62686;48.984;8.394;2022-09-16T08:09:04;15.40;1.00
38866;DHT22;62686;48.984;8.394;2022-09-16T08:11:36;15.30;1.00
38866;DHT22;62686;48.984;8.394;2022-09-16T08:14:04;15.30;1.00
38866;DHT22;62686;48.984;8.394;2022-09-16T08:16:34;15.30;1.00
38866;DHT22;62686;48.984;8.394;2022-09-16T08:19:02;15.30;4.90
38866;DHT22;62686;48.984;8.394;2022-09-16T08:21:30;15.30;1.00
38866;DHT22;62686;48.984;8.394;2022-09-16T08:23:58;15.30;1.00
38866;DHT22;62686;48.984;8.394;2022-09-16T08:26:26;15.20;1.00
38866;DHT22;62686;48.984;8.394;2022-09-16T08:28:54;15.30;1.00
38866;DHT22;62686;48.984;8.394;2022-09-16T08:31:35;15.30;1.00
38866;DHT22;62686;48.984;8.394;2022-09-16T08:34:03;15.20;1.00
38866;DHT22;62686;48.984;8.394;2022-09-16T08:36:31;15.20;1.00
38866;DHT22;62686;48.984;8.394;2022-09-16T08:39:00;15.30;1.00
38866;DHT22;62686;48.984;8.394;2022-09-16T08:41:46;15.30;1.00
38866;DHT22;62686;48.984;8.394;2022-09-16T08:44:26;15.30;1.00
38866;DHT22;62686;48.984;8.394;2022-09-16T08:47:00;15.30;1.00
38866;DHT22;62686;48.984;8.394;2022-09-16T08:49:33;15.40;1.00
38866;DHT22;62686;48.984;8.394;2022-09-16T08:52:04;15.40;1.00
38866;DHT22;62686;48.984;8.394;2022-09-16T08:54:39;15.50;1.00
38866;DHT22;62686;48.984;8.394;2022-09-16T08:57:13;15.70;1.00
38866;DHT22;62686;48.984;8.394;2022-09-16T08:59:45;15.70;1.00
38866;DHT22;62686;48.984;8.394;2022-09-16T09:02:32;15.70;1.00
38866;DHT22;62686;48.984;8.394;2022-09-16T09:05:14;15.70;1.00
38866;DHT22;62686;48.984;8.394;2022-09-16T09:08:06;15.50;1.00
38866;DHT22;62686;48.984;8.394;2022-09-16T09:10:42;15.40;1.00
38866;DHT22;62686;48.984;8.394;2022-09-16T09:13:27;15.30;1.00
38866;DHT22;62686;48.984;8.394;2022-09-16T09:16:00;15.20;1.00
38866;DHT22;62686;48.984;8.394;2022-09-16T09:18:39;15.20;1.00
38866;DHT22;62686;48.984;8.394;2022-09-16T09:21:20;15.10;1.00
38866;DHT22;62686;48.984;8.394;2022-09-16T09:24:06;15.10;1.00
38866;DHT22;62686;48.984;8.394;2022-09-16T09:26:40;15.30;1.00
38866;DHT22;62686;48.984;8.394;2022-09-16T09:29:29;15.30;1.00
38866;DHT22;62686;48.984;8.394;2022-09-16T09:32:12;15.30;1.00
38866;DHT22;62686;48.984;8.394;2022-09-16T09:34:56;15.40;1.00
38866;DHT22;62686;48.984;8.394;2022-09-16T09:37:52;15.50;1.00
38866;DHT22;62686;48.984;8.394;2022-09-16T09:40:31;15.60;1.00
38866;DHT22;62686;48.984;8.394;2022-09-16T09:43:07;15.70;1.00
38866;DHT22;62686;48.984;8.394;2022-09-16T09:45:39;15.60;1.00
38866;DHT22;62686;48.984;8.394;2022-09-16T09:48:15;15.60;1.00
38866;DHT22;62686;48.984;8.394;2022-09-16T09:50:48;15.50;1.00
38866;DHT22;62686;48.984;8.394;2022-09-16T09:53:19;15.40;1.00
38866;DHT22;62686;48.984;8.394;2022-09-16T09:55:51;15.40;1.00
38866;DHT22;62686;48.984;8.394;2022-09-16T09:58:25;15.40;1.00
38866;DHT22;62686;48.984;8.394;2022-09-16T10:00:55;15.30;1.00
38866;DHT22;62686;48.984;8.394;2022-09-16T10:03:25;15.20;1.00
38866;DHT22;62686;48.984;8.394;2022-09-16T10:05:55;15.10;1.00
38866;DHT22;62686;48.984;8.394;2022-09-16T10:08:26;15.00;1.00
38866;DHT22;62686;48.984;8.394;2022-09-16T10:10:57;15.00;1.00
38866;DHT22;62686;48.984;8.394;2022-09-16T10:13:27;15.00;1.00
38866;DHT22;62686;48.984;8.394;2022-09-16T10:16:07;15.10;1.00
38866;DHT22;62686;48.984;8.394;2022-09-16T10:18:36;15.00;1.00
38866;DHT22;62686;48.984;8.394;2022-09-16T10:21:08;15.10;1.00
38866;DHT22;62686;48.984;8.394;2022-09-16T10:23:37;15.10;1.00
38866;DHT22;62686;48.984;8.394;2022-09-16T10:28:56;15.30;1.00
38866;DHT22;62686;48.984;8.394;2022-09-16T10:31:29;15.30;1.00
38866;DHT22;62686;48.984;8.394;2022-09-16T10:33:59;15.50;1.00
38866;DHT22;62686;48.984;8.394;2022-09-16T10:36:32;15.70;1.00
38866;DHT22;62686;48.984;8.394;2022-09-16T10:39:02;15.80;1.00
38866;DHT22;62686;48.984;8.394;2022-09-16T10:41:33;16.10;1.00
38866;DHT22;62686;48.984;8.394;2022-09-16T10:44:03;16.50;1.00
38866;DHT22;62686;48.984;8.394;2022-09-16T10:46:34;17.00;1.00
38866;DHT22;62686;48.984;8.394;2022-09-16T10:49:09;17.50;1.00
38866;DHT22;62686;48.984;8.394;2022-09-16T10:51:40;18.00;1.00
38866;DHT22;62686;48.984;8.394;2022-09-16T10:54:24;18.40;1.00
38866;DHT22;62686;48.984;8.394;2022-09-16T10:56:54;18.90;99.90
38866;DHT22;62686;48.984;8.394;2022-09-16T10:59:22;19.30;99.90
38866;DHT22;62686;48.984;8.394;2022-09-16T11:01:56;19.80;54.10
38866;DHT22;62686;48.984;8.394;2022-09-16T11:04:51;20.20;1.00
38866;DHT22;62686;48.984;8.394;2022-09-16T11:07:34;20.40;1.00
38866;DHT22;62686;48.984;8.394;2022-09-16T11:10:10;21.10;99.90
38866;DHT22;62686;48.984;8.394;2022-09-16T11:12:59;21.30;1.00
38866;DHT22;62686;48.984;8.394;2022-09-16T11:15:42;21.60;1.00
38866;DHT22;62686;48.984;8.394;2022-09-16T11:18:23;21.90;1.00
38866;DHT22;62686;48.984;8.394;2022-09-16T11:21:09;21.70;3.10
38866;DHT22;62686;48.984;8.394;2022-09-16T11:23:52;21.60;99.90
38866;DHT22;62686;48.984;8.394;2022-09-16T11:26:29;21.80;1.00
38866;DHT22;62686;48.984;8.394;2022-09-16T11:29:19;22.30;1.00
38866;DHT22;62686;48.984;8.394;2022-09-16T11:31:58;23.60;1.00
38866;DHT22;62686;48.984;8.394;2022-09-16T11:34:46;24.30;1.00
38866;DHT22;62686;48.984;8.394;2022-09-16T11:37:23;23.80;1.00
38866;DHT22;62686;48.984;8.394;2022-09-16T11:40:07;23.00;1.00
38866;DHT22;62686;48.984;8.394;2022-09-16T11:42:41;23.50;1.00
38866;DHT22;62686;48.984;8.394;2022-09-16T11:45:29;24.70;99.90
38866;DHT22;62686;48.984;8.394;2022-09-16T11:48:22;26.20;19.10
38866;DHT22;62686;48.984;8.394;2022-09-16T11:51:03;25.60;1.00
38866;DHT22;62686;48.984;8.394;2022-09-16T11:53:57;23.90;1.00
38866;DHT22;62686;48.984;8.394;2022-09-16T11:56:35;23.10;26.70
38866;DHT22;62686;48.984;8.394;2022-09-16T11:59:11;22.30;99.90
38866;DHT22;62686;48.984;8.394;2022-09-16T12:01:43;21.90;99.90
38866;DHT22;62686;48.984;8.394;2022-09-16T12:04:17;22.40;1.00
38866;DHT22;62686;48.984;8.394;2022-09-16T12:06:53;22.50;84.20
38866;DHT22;62686;48.984;8.394;2022-09-16T12:09:27;23.30;99.90
38866;DHT22;62686;48.984;8.394;2022-09-16T12:12:07;23.70;1.00
38866;DHT22;62686;48.984;8.394;2022-09-16T12:14:40;23.60;99.90
38866;DHT22;62686;48.984;8.394;2022-09-16T12:17:15;22.90;1.00
38866;DHT22;62686;48.984;8.394;2022-09-16T12:19:48;22.70;1.00
38866;DHT22;62686;48.984;8.394;2022-09-16T12:22:21;23.40;1.00
38866;DHT22;62686;48.984;8.394;2022-09-16T12:24:56;24.60;89.80
38866;DHT22;62686;48.984;8.394;2022-09-16T12:27:39;24.60;99.90
38866;DHT22;62686;48.984;8.394;2022-09-16T12:30:14;25.00;62.50
38866;DHT22;62686;48.984;8.394;2022-09-16T12:32:50;25.40;1.00
38866;DHT22;62686;48.984;8.394;2022-09-16T12:35:26;25.00;1.00
38866;DHT22;62686;48.984;8.394;2022-09-16T12:37:55;24.00;27.40
38866;DHT22;62686;48.984;8.394;2022-09-16T12:40:26;23.60;99.90
38866;DHT22;62686;48.984;8.394;2022-09-16T12:43:30;23.10;99.90
38866;DHT22;62686;48.984;8.394;2022-09-16T12:46:33;22.40;99.90
38866;DHT22;62686;48.984;8.394;2022-09-16T12:52:18;20.00;1.00
38866;DHT22;62686;48.984;8.394;2022-09-16T12:55:42;19.40;1.00
38866;DHT22;62686;48.984;8.394;2022-09-16T13:01:21;18.20;1.00
38866;DHT22;62686;48.984;8.394;2022-09-16T13:03:54;18.00;1.00
38866;DHT22;62686;48.984;8.394;2022-09-16T13:06:28;18.10;1.00
38866;DHT22;62686;48.984;8.394;2022-09-16T13:09:12;18.30;60.70
38866;DHT22;62686;48.984;8.394;2022-09-16T13:11:54;18.40;1.00
38866;DHT22;62686;48.984;8.394;2022-09-16T13:14:45;18.30;1.00
38866;DHT22;62686;48.984;8.394;2022-09-16T13:17:26;18.10;1.00
38866;DHT22;62686;48.984;8.394;2022-09-16T13:20:00;18.00;99.90
38866;DHT22;62686;48.984;8.394;2022-09-16T13:22:35;17.90;99.90
38866;DHT22;62686;48.984;8.394;2022-09-16T13:25:10;18.00;1.00
38866;DHT22;62686;48.984;8.394;2022-09-16T13:27:54;18.60;1.00
38866;DHT22;62686;48.984;8.394;2022-09-16T13:30:32;19.20;1.00
38866;DHT22;62686;48.984;8.394;2022-09-16T13:33:24;19.60;1.00
38866;DHT22;62686;48.984;8.394;2022-09-16T13:36:30;19.70;99.90
38866;DHT22;62686;48.984;8.394;2022-09-16T13:39:00;19.80;99.90
38866;DHT22;62686;48.984;8.394;2022-09-16T13:41:31;19.70;36.30
38866;DHT22;62686;48.984;8.394;2022-09-16T13:44:01;19.60;1.00
38866;DHT22;62686;48.984;8.394;2022-09-16T13:46:32;19.50;94.10
38866;DHT22;62686;48.984;8.394;2022-09-16T13:49:16;19.40;13.20
38866;DHT22;62686;48.984;8.394;2022-09-16T13:51:46;19.60;1.00
38866;DHT22;62686;48.984;8.394;2022-09-16T13:54:25;19.70;95.20
38866;DHT22;62686;48.984;8.394;2022-09-16T14:00:18;19.90;1.00
38866;DHT22;62686;48.984;8.394;2022-09-16T14:08:48;19.60;1.00
38866;DHT22;62686;48.984;8.394;2022-09-16T14:11:25;19.80;99.90
38866;DHT22;62686;48.984;8.394;2022-09-16T14:14:00;20.00;99.90
38866;DHT22;62686;48.984;8.394;2022-09-16T14:16:33;21.30;99.90
38866;DHT22;62686;48.984;8.394;2022-09-16T14:19:04;22.30;99.90
38866;DHT22;62686;48.984;8.394;2022-09-16T14:21:34;22.30;55.00
38866;DHT22;62686;48.984;8.394;2022-09-16T14:24:14;22.40;99.90
38866;DHT22;62686;48.984;8.394;2022-09-16T14:26:50;22.40;1.00
38866;DHT22;62686;48.984;8.394;2022-09-16T14:29:19;22.00;99.90
38866;DHT22;62686;48.984;8.394;2022-09-16T14:31:48;22.00;50.70
38866;DHT22;62686;48.984;8.394;2022-09-16T14:34:24;22.20;1.00
38866;DHT22;62686;48.984;8.394;2022-09-16T14:36:54;21.80;30.10
38866;DHT22;62686;48.984;8.394;2022-09-16T14:39:25;21.20;4.80
38866;DHT22;62686;48.984;8.394;2022-09-16T14:41:55;20.10;1.00
38866;DHT22;62686;48.984;8.394;2022-09-16T14:44:27;19.30;99.90
38866;DHT22;62686;48.984;8.394;2022-09-16T14:47:01;19.10;99.90
38866;DHT22;62686;48.984;8.394;2022-09-16T14:49:31;18.80;99.90
38866;DHT22;62686;48.984;8.394;2022-09-16T14:52:13;18.60;1.00
38866;DHT22;62686;48.984;8.394;2022-09-16T14:54:43;18.50;99.90
38866;DHT22;62686;48.984;8.394;2022-09-16T14:57:15;18.30;99.90
38866;DHT22;62686;48.984;8.394;2022-09-16T14:59:44;18.30;1.00
38866;DHT22;62686;48.984;8.394;2022-09-16T15:02:16;18.20;99.90
38866;DHT22;62686;48.984;8.394;2022-09-16T15:04:48;18.20;1.00
38866;DHT22;62686;48.984;8.394;2022-09-16T15:07:21;18.30;1.00
38866;DHT22;62686;48.984;8.394;2022-09-16T15:09:53;18.40;1.00
38866;DHT22;62686;48.984;8.394;2022-09-16T15:12:27;18.40;1.00
38866;DHT22;62686;48.984;8.394;2022-09-16T15:14:56;18.40;1.00
38866;DHT22;62686;48.984;8.394;2022-09-16T15:17:26;18.30;1.00
38866;DHT22;62686;48.984;8.394;2022-09-16T15:19:56;18.40;99.90
38866;DHT22;62686;48.984;8.394;2022-09-16T15:22:27;18.50;1.00
38866;DHT22;62686;48.984;8.394;2022-09-16T15:24:56;18.50;1.00
38866;DHT22;62686;48.984;8.394;2022-09-16T15:27:27;18.40;99.90
38866;DHT22;62686;48.984;8.394;2022-09-16T15:29:58;18.40;1.00
38866;DHT22;62686;48.984;8.394;2022-09-16T15:32:28;18.40;99.90
38866;DHT22;62686;48.984;8.394;2022-09-16T15:35:20;18.30;99.90
38866;DHT22;62686;48.984;8.394;2022-09-16T15:37:49;18.40;1.00
38866;DHT22;62686;48.984;8.394;2022-09-16T15:40:28;18.50;1.00
38866;DHT22;62686;48.984;8.394;2022-09-16T15:43:03;18.50;99.90
38866;DHT22;62686;48.984;8.394;2022-09-16T15:45:32;18.50;99.90
38866;DHT22;62686;48.984;8.394;2022-09-16T15:48:04;18.40;99.90
38866;DHT22;62686;48.984;8.394;2022-09-16T15:50:40;18.30;99.90
38866;DHT22;62686;48.984;8.394;2022-09-16T15:53:12;18.20;1.00
38866;DHT22;62686;48.984;8.394;2022-09-16T15:55:51;18.20;10.00
38866;DHT22;62686;48.984;8.394;2022-09-16T15:58:32;18.00;1.00
38866;DHT22;62686;48.984;8.394;2022-09-16T16:01:10;17.80;99.90
38866;DHT22;62686;48.984;8.394;2022-09-16T16:03:51;17.70;1.00
38866;DHT22;62686;48.984;8.394;2022-09-16T16:06:45;17.60;1.00
38866;DHT22;62686;48.984;8.394;2022-09-16T16:09:32;17.50;44.70
38866;DHT22;62686;48.984;8.394;2022-09-16T16:12:02;17.30;99.90
38866;DHT22;62686;48.984;8.394;2022-09-16T16:14:32;17.20;93.20
38866;DHT22;62686;48.984;8.394;2022-09-16T16:17:02;17.10;99.90
38866;DHT22;62686;48.984;8.394;2022-09-16T16:19:38;17.00;99.90
38866;DHT22;62686;48.984;8.394;2022-09-16T16:22:08;16.80;99.90
38866;DHT22;62686;48.984;8.394;2022-09-16T16:24:37;16.70;99.90
38866;DHT22;62686;48.984;8.394;2022-09-16T16:27:06;16.60;99.90
38866;DHT22;62686;48.984;8.394;2022-09-16T16:29:35;16.60;99.90
38866;DHT22;62686;48.984;8.394;2022-09-16T16:32:07;16.50;99.90
38866;DHT22;62686;48.984;8.394;2022-09-16T16:34:37;16.50;99.90
38866;DHT22;62686;48.984;8.394;2022-09-16T16:37:10;16.40;1.00